CheckWX is a tool to help pilots better visualize weather data.  It is not intended as a substitute for an official pre-flight weather briefing.

02:06:20 UTC

KCXW METAR
Cantrell Field Airport
Conway, Arkansas, USA
Current

31 mins ago

KCXW 180135Z AUTO 00000KT 10SM CLR 05/M00 A3002 RMK A01
Observed
Feb-18 @ 01:35 UTC
Visibility
10 SM
Flight Rules
VFR
Cloud Levels
  • Clear skies
Temperature
C / 41°F
Dewpoint
C / 32°F
Humidity
70%
Altimeter
30.02" Hg
Pressure
1016.62 hPa
Previous

51 mins ago

KCXW 180115Z AUTO 00000KT 10SM CLR 05/M00 A3001 RMK A01
Observed
Feb-18 @ 01:15 UTC
Visibility
10 SM
Flight Rules
VFR
Cloud Levels
  • Clear skies
Temperature
C / 41°F
Dewpoint
C / 32°F
Humidity
70%
Altimeter
30.01" Hg
Pressure
1016.22 hPa
Previous

1 hour ago

KCXW 180055Z AUTO 00000KT 10SM CLR 06/M00 A3000 RMK A01
Observed
Feb-18 @ 00:55 UTC
Visibility
10 SM
Flight Rules
VFR
Cloud Levels
  • Clear skies
Temperature
C / 43°F
Dewpoint
C / 32°F
Humidity
66%
Altimeter
30" Hg
Pressure
1015.92 hPa